createdAt,value
2023-04-02T00:00:12.712Z,8.54
2023-04-02T00:03:04.047Z,8.52
2023-04-02T00:05:52.595Z,8.48
2023-04-02T00:08:25.262Z,8.40
2023-04-02T00:11:02.754Z,8.34
2023-04-02T00:13:37.315Z,8.30
2023-04-02T00:16:08.583Z,8.28
2023-04-02T00:18:42.844Z,8.26
2023-04-02T00:21:19.815Z,8.25
2023-04-02T00:23:48.003Z,8.23
2023-04-02T00:26:50.172Z,8.23
2023-04-02T00:29:19.871Z,8.23
2023-04-02T00:31:50.372Z,8.24
2023-04-02T00:34:23.076Z,8.25
2023-04-02T00:36:53.715Z,8.27
2023-04-02T00:39:28.637Z,8.28
2023-04-02T00:42:05.332Z,8.31
2023-04-02T00:44:42.952Z,8.33
2023-04-02T00:47:21.402Z,8.36
2023-04-02T00:50:12.537Z,8.39
2023-04-02T00:52:43.313Z,8.43
2023-04-02T00:55:14.507Z,8.48
2023-04-02T00:57:45.041Z,8.52
2023-04-02T01:00:29.397Z,8.57
2023-04-02T01:03:16.872Z,8.61
2023-04-02T01:06:03.748Z,8.66
2023-04-02T01:08:37.898Z,8.70
2023-04-02T01:12:13.970Z,8.73
2023-04-02T01:14:49.459Z,8.74
2023-04-02T01:17:33.062Z,8.77
2023-04-02T01:20:36.794Z,8.79
2023-04-02T01:23:17.187Z,8.83
2023-04-02T01:26:08.267Z,8.87
2023-04-02T01:29:02.758Z,8.91
2023-04-02T01:31:33.563Z,8.96
2023-04-02T01:34:03.904Z,9.01
2023-04-02T01:36:50.310Z,9.06
2023-04-02T01:39:27.080Z,9.12
2023-04-02T01:42:22.710Z,9.14
2023-04-02T01:44:53.947Z,9.09
2023-04-02T01:47:28.924Z,9.08
2023-04-02T01:50:21.238Z,9.01
2023-04-02T01:52:56.271Z,8.91
2023-04-02T01:55:48.955Z,8.87
2023-04-02T01:58:26.341Z,8.84
2023-04-02T02:01:27.941Z,8.82
2023-04-02T02:03:56.326Z,8.82
2023-04-02T02:06:24.899Z,8.80
2023-04-02T02:09:05.146Z,8.77
2023-04-02T02:11:34.146Z,8.73
2023-04-02T02:14:12.198Z,8.70
2023-04-02T02:16:44.040Z,8.67
2023-04-02T02:19:31.336Z,8.63
2023-04-02T02:22:19.807Z,8.60
2023-04-02T02:24:49.085Z,8.56
2023-04-02T02:27:23.208Z,8.54
2023-04-02T02:29:55.626Z,8.50
2023-04-02T02:32:29.877Z,8.46
2023-04-02T02:35:11.415Z,8.42
2023-04-02T02:37:47.989Z,8.37
2023-04-02T02:40:27.703Z,8.34
2023-04-02T02:42:59.955Z,8.33
2023-04-02T02:45:34.119Z,8.32
2023-04-02T02:48:04.932Z,8.32
2023-04-02T02:50:33.976Z,8.32
2023-04-02T02:53:07.905Z,8.32
2023-04-02T02:55:37.651Z,8.34
2023-04-02T02:58:26.440Z,8.32
2023-04-02T03:01:01.872Z,8.32
2023-04-02T03:03:34.384Z,8.32
2023-04-02T03:06:08.618Z,8.31
2023-04-02T03:08:46.598Z,8.32
2023-04-02T03:11:35.356Z,8.34
2023-04-02T03:14:29.568Z,8.34
2023-04-02T03:17:21.790Z,8.38
2023-04-02T03:19:55.296Z,8.49
2023-04-02T03:22:41.631Z,8.59
2023-04-02T03:25:50.006Z,8.63
2023-04-02T03:28:27.505Z,8.63
2023-04-02T03:31:02.358Z,8.64
2023-04-02T03:33:36.528Z,8.63
2023-04-02T03:36:23.280Z,8.65
2023-04-02T03:39:00.419Z,8.65
2023-04-02T03:42:06.647Z,8.70
2023-04-02T03:44:39.604Z,8.76
2023-04-02T03:47:19.001Z,8.75
2023-04-02T03:50:11.862Z,8.69
2023-04-02T03:52:41.460Z,8.62
2023-04-02T03:55:20.931Z,8.59
2023-04-02T03:57:55.257Z,8.55
2023-04-02T04:00:37.316Z,8.52
2023-04-02T04:03:19.003Z,8.43
2023-04-02T04:05:57.623Z,8.34
2023-04-02T04:08:34.401Z,8.26
2023-04-02T04:11:09.274Z,8.19
2023-04-02T04:13:47.437Z,8.14
2023-04-02T04:16:26.578Z,8.06
2023-04-02T04:19:09.456Z,8.01
2023-04-02T04:21:37.816Z,7.97
2023-04-02T04:24:27.153Z,7.94
2023-04-02T04:27:21.718Z,7.92
2023-04-02T04:30:36.290Z,7.89
2023-04-02T04:33:26.159Z,7.86
2023-04-02T04:36:01.890Z,7.85
2023-04-02T04:38:39.192Z,7.84
2023-04-02T04:41:24.504Z,7.84
2023-04-02T04:44:18.430Z,7.84
2023-04-02T04:47:32.158Z,7.84
2023-04-02T04:50:14.705Z,7.90
2023-04-02T04:52:44.025Z,7.95
2023-04-02T04:55:45.851Z,7.98
2023-04-02T04:58:23.272Z,8.06
2023-04-02T05:00:55.631Z,8.17
2023-04-02T05:03:38.959Z,8.26
2023-04-02T05:06:39.124Z,8.34
2023-04-02T05:09:22.751Z,8.44
2023-04-02T05:12:07.888Z,8.55
2023-04-02T05:14:42.699Z,8.64
2023-04-02T05:17:21.796Z,8.73
2023-04-02T05:20:01.074Z,8.82
2023-04-02T05:22:40.202Z,8.91
2023-04-02T05:25:25.774Z,9.00
2023-04-02T05:28:00.516Z,9.10
2023-04-02T05:30:28.689Z,9.20
2023-04-02T05:33:00.655Z,9.31
2023-04-02T05:35:34.569Z,9.42
2023-04-02T05:38:06.727Z,9.54
2023-04-02T05:40:41.042Z,9.63
2023-04-02T05:43:15.045Z,9.71
2023-04-02T05:45:52.028Z,9.81
2023-04-02T05:48:28.241Z,10.13
2023-04-02T05:50:59.036Z,10.34
2023-04-02T05:53:36.946Z,10.42
2023-04-02T05:56:28.452Z,10.49
2023-04-02T05:59:11.670Z,10.56
2023-04-02T06:01:49.623Z,10.74
2023-04-02T06:04:34.745Z,10.80
2023-04-02T06:07:16.029Z,10.87
2023-04-02T06:10:24.808Z,11.06
2023-04-02T06:13:03.767Z,11.13
2023-04-02T06:15:37.680Z,11.13
2023-04-02T06:18:20.186Z,11.13
2023-04-02T06:20:49.481Z,11.16
2023-04-02T06:23:30.893Z,11.17
2023-04-02T06:26:00.789Z,11.31
2023-04-02T06:28:52.817Z,11.40
2023-04-02T06:31:25.414Z,11.42
2023-04-02T06:33:56.518Z,11.47
2023-04-02T06:36:27.267Z,11.50
2023-04-02T06:39:07.034Z,11.49
2023-04-02T06:41:35.491Z,11.49
2023-04-02T06:44:38.367Z,11.45
2023-04-02T06:47:24.474Z,11.45
2023-04-02T06:50:02.471Z,11.45
2023-04-02T06:52:40.481Z,11.45
2023-04-02T06:55:44.395Z,11.45
2023-04-02T06:58:14.692Z,11.53
2023-04-02T07:00:46.135Z,11.60
2023-04-02T07:03:22.123Z,11.68
2023-04-02T07:05:50.607Z,11.76
2023-04-02T07:08:18.887Z,11.78
2023-04-02T07:10:47.864Z,11.83
2023-04-02T07:13:18.857Z,11.92
2023-04-02T07:15:50.430Z,11.99
2023-04-02T07:18:42.197Z,12.04
2023-04-02T07:21:11.076Z,12.12
2023-04-02T07:23:39.655Z,12.24
2023-04-02T07:26:09.555Z,12.37
2023-04-02T07:28:37.532Z,12.57
2023-04-02T07:31:19.274Z,12.77
2023-04-02T07:33:47.373Z,12.98
2023-04-02T07:36:18.384Z,13.13
2023-04-02T07:38:46.976Z,13.36
2023-04-02T07:41:16.295Z,13.58
2023-04-02T07:43:44.495Z,13.77
2023-04-02T07:46:16.736Z,14.00
2023-04-02T07:48:45.333Z,14.17
2023-04-02T07:51:23.134Z,14.18
2023-04-02T07:53:55.662Z,14.11
2023-04-02T07:56:25.451Z,14.12
2023-04-02T07:58:53.505Z,14.29
2023-04-02T08:01:26.731Z,14.34
2023-04-02T08:03:56.690Z,14.33
2023-04-02T08:06:25.976Z,14.31
2023-04-02T08:08:54.382Z,14.29
2023-04-02T08:11:22.377Z,14.09
2023-04-02T08:13:50.732Z,13.96
2023-04-02T08:16:18.771Z,13.88
2023-04-02T08:18:47.978Z,13.78
2023-04-02T08:21:16.741Z,13.69
2023-04-02T08:23:45.354Z,13.71
2023-04-02T08:26:18.893Z,13.78
2023-04-02T08:28:47.145Z,13.83
2023-04-02T08:31:15.444Z,13.78
2023-04-02T08:33:43.701Z,13.70
2023-04-02T08:36:19.226Z,13.64
2023-04-02T08:38:47.611Z,13.53
2023-04-02T08:41:27.713Z,13.44
2023-04-02T08:44:16.321Z,13.44
2023-04-02T08:46:52.209Z,13.41
2023-04-02T08:49:32.402Z,13.38
2023-04-02T08:52:01.118Z,13.33
2023-04-02T08:54:34.338Z,13.32
2023-04-02T08:57:36.218Z,13.30
2023-04-02T09:00:10.338Z,13.29
2023-04-02T09:02:43.682Z,13.35
2023-04-02T09:05:23.927Z,13.50
2023-04-02T09:07:54.357Z,13.69
2023-04-02T09:10:31.863Z,13.80
2023-04-02T09:13:01.556Z,13.82
2023-04-02T09:15:36.117Z,13.86
2023-04-02T09:18:16.864Z,13.91
2023-04-02T09:20:46.131Z,14.04
2023-04-02T09:23:19.795Z,14.15
2023-04-02T09:26:03.605Z,14.15
2023-04-02T09:28:32.913Z,14.11
2023-04-02T09:31:27.099Z,14.03
2023-04-02T09:33:55.244Z,13.93
2023-04-02T09:36:26.770Z,13.88
2023-04-02T09:39:07.074Z,13.83
2023-04-02T09:41:37.168Z,13.88
2023-04-02T09:44:13.044Z,13.93
2023-04-02T09:47:23.215Z,13.98
2023-04-02T09:49:52.187Z,14.02
2023-04-02T09:52:26.763Z,14.02
2023-04-02T09:55:15.560Z,14.03
2023-04-02T09:57:44.068Z,14.10
2023-04-02T10:00:32.562Z,14.12
2023-04-02T10:03:23.402Z,14.16
2023-04-02T10:06:13.559Z,14.19
2023-04-02T10:08:44.107Z,14.22
2023-04-02T10:11:17.302Z,14.22
2023-04-02T10:14:01.439Z,14.20
2023-04-02T10:16:40.798Z,14.22
2023-04-02T10:19:26.578Z,14.32
2023-04-02T10:21:56.712Z,14.43
2023-04-02T10:24:28.331Z,14.52
2023-04-02T10:27:02.761Z,14.57
2023-04-02T10:29:39.954Z,14.66
2023-04-02T10:32:23.377Z,14.76
2023-04-02T10:35:03.373Z,14.74
2023-04-02T10:37:43.347Z,14.72
2023-04-02T10:40:17.481Z,14.67
2023-04-02T10:42:51.914Z,14.73
2023-04-02T10:45:42.602Z,14.76
2023-04-02T10:48:42.759Z,14.80
2023-04-02T10:51:28.534Z,14.82
2023-04-02T10:54:17.578Z,14.81
2023-04-02T10:56:51.059Z,14.81
2023-04-02T10:59:32.524Z,14.80
2023-04-02T11:02:04.056Z,14.82
2023-04-02T11:04:44.270Z,14.90
2023-04-02T11:07:23.667Z,15.05
2023-04-02T11:09:56.458Z,15.24
2023-04-02T11:12:46.698Z,15.40
2023-04-02T11:15:20.011Z,15.66
2023-04-02T11:17:48.710Z,16.01
2023-04-02T11:20:47.748Z,16.28
2023-04-02T11:23:19.144Z,16.36
2023-04-02T11:25:47.903Z,16.45
2023-04-02T11:28:25.786Z,16.80
2023-04-02T11:30:54.999Z,17.19
2023-04-02T11:33:39.184Z,17.42
2023-04-02T11:36:48.982Z,17.82
2023-04-02T11:39:54.114Z,18.16
2023-04-02T11:42:26.485Z,17.98
2023-04-02T11:44:55.687Z,17.72
2023-04-02T11:47:25.938Z,17.39
2023-04-02T11:50:04.401Z,17.07
2023-04-02T11:52:49.901Z,16.85
2023-04-02T11:55:25.242Z,16.60
2023-04-02T11:58:09.807Z,16.36
2023-04-02T12:01:18.617Z,16.12
2023-04-02T12:03:52.753Z,15.87
2023-04-02T12:06:55.109Z,15.73
2023-04-02T12:09:31.058Z,15.65
2023-04-02T12:12:02.219Z,15.66
2023-04-02T12:14:43.294Z,15.61
2023-04-02T12:17:31.715Z,15.54
2023-04-02T12:20:08.417Z,15.43
2023-04-02T12:22:41.293Z,15.38
2023-04-02T12:25:24.679Z,15.40
2023-04-02T12:28:20.136Z,15.46
2023-04-02T12:30:50.045Z,15.58
2023-04-02T12:33:30.859Z,15.74
2023-04-02T12:36:01.448Z,15.84
2023-04-02T12:38:33.508Z,15.78
2023-04-02T12:41:05.401Z,15.80
2023-04-02T12:43:34.595Z,15.74
2023-04-02T12:46:05.835Z,15.68
2023-04-02T12:48:35.440Z,15.60
2023-04-02T12:51:04.711Z,15.50
2023-04-02T12:53:41.486Z,15.47
2023-04-02T12:56:21.451Z,15.42
2023-04-02T12:58:55.743Z,15.37
2023-04-02T13:01:27.729Z,15.32
2023-04-02T13:04:01.929Z,15.27
2023-04-02T13:06:33.364Z,15.29
2023-04-02T13:09:04.266Z,15.31
2023-04-02T13:11:39.969Z,15.25
2023-04-02T13:14:18.412Z,15.23
2023-04-02T13:16:47.030Z,15.18
2023-04-02T13:19:17.808Z,15.08
2023-04-02T13:21:46.193Z,15.00
2023-04-02T13:24:18.561Z,14.99
2023-04-02T13:26:49.646Z,15.00
2023-04-02T13:29:17.974Z,14.94
2023-04-02T13:31:46.252Z,14.85
2023-04-02T13:34:14.908Z,14.82
2023-04-02T13:36:42.904Z,14.81
2023-04-02T13:39:11.178Z,14.74
2023-04-02T13:41:48.665Z,14.65
2023-04-02T13:44:29.398Z,14.63
2023-04-02T13:46:58.730Z,14.64
2023-04-02T13:49:27.869Z,14.62
2023-04-02T13:51:59.195Z,14.58
2023-04-02T13:54:51.523Z,14.55
2023-04-02T13:57:19.531Z,14.48
2023-04-02T13:59:47.427Z,14.43
2023-04-02T14:02:18.890Z,14.39
2023-04-02T14:04:51.113Z,14.35
2023-04-02T14:07:57.716Z,14.27
2023-04-02T14:10:44.029Z,14.21
2023-04-02T14:13:31.163Z,14.14
2023-04-02T14:15:59.116Z,14.15
2023-04-02T14:18:33.137Z,14.18
2023-04-02T14:21:19.734Z,14.17
2023-04-02T14:24:04.708Z,14.18
2023-04-02T14:27:08.207Z,14.24
2023-04-02T14:29:45.594Z,14.28
2023-04-02T14:32:44.752Z,14.26
2023-04-02T14:35:28.348Z,14.19
2023-04-02T14:38:24.161Z,14.10
2023-04-02T14:40:55.089Z,14.02
2023-04-02T14:43:45.378Z,13.95
2023-04-02T14:46:13.918Z,13.85
2023-04-02T14:48:54.490Z,13.81
2023-04-02T14:51:40.929Z,13.79
2023-04-02T14:54:12.887Z,13.78
2023-04-02T14:57:12.931Z,13.87
2023-04-02T14:59:59.727Z,13.96
2023-04-02T15:02:47.580Z,14.00
2023-04-02T15:05:21.354Z,13.96
2023-04-02T15:07:56.688Z,13.90
2023-04-02T15:10:34.698Z,13.86
2023-04-02T15:13:08.226Z,13.81
2023-04-02T15:15:46.958Z,13.81
2023-04-02T15:18:17.436Z,13.89
2023-04-02T15:21:20.083Z,13.95
2023-04-02T15:23:51.124Z,13.99
2023-04-02T15:26:31.440Z,13.99
2023-04-02T15:29:25.850Z,13.94
2023-04-02T15:32:04.418Z,13.83
2023-04-02T15:34:39.254Z,13.69
2023-04-02T15:37:16.941Z,13.55
2023-04-02T15:40:07.005Z,13.45
2023-04-02T15:42:41.186Z,13.33
2023-04-02T15:45:12.189Z,13.21
2023-04-02T15:47:53.834Z,13.13
2023-04-02T15:50:46.431Z,13.00
2023-04-02T15:53:43.676Z,12.91
2023-04-02T15:56:39.189Z,12.86
2023-04-02T15:59:10.134Z,12.85
2023-04-02T16:02:10.426Z,12.83
2023-04-02T16:04:53.885Z,12.76
2023-04-02T16:07:25.147Z,12.66
2023-04-02T16:10:05.717Z,12.58
2023-04-02T16:12:37.045Z,12.50
2023-04-02T16:15:31.753Z,12.42
2023-04-02T16:18:18.447Z,12.34
2023-04-02T16:20:48.790Z,12.27
2023-04-02T16:23:22.678Z,12.20
2023-04-02T16:26:10.822Z,12.15
2023-04-02T16:29:16.370Z,12.09
2023-04-02T16:31:57.045Z,12.03
2023-04-02T16:35:05.027Z,11.98
2023-04-02T16:38:36.203Z,11.91
2023-04-02T16:41:18.060Z,11.85
2023-04-02T16:43:59.361Z,11.79
2023-04-02T16:46:46.137Z,11.71
2023-04-02T16:49:46.203Z,11.62
2023-04-02T16:52:39.588Z,11.54
2023-04-02T16:55:26.364Z,11.49
2023-04-02T16:58:20.142Z,11.44
2023-04-02T17:01:11.845Z,11.39
2023-04-02T17:03:58.633Z,11.33
2023-04-02T17:06:42.406Z,11.27
2023-04-02T17:09:33.014Z,11.21
2023-04-02T17:12:36.716Z,11.17
2023-04-02T17:15:32.542Z,11.12
2023-04-02T17:18:02.550Z,11.08
2023-04-02T17:20:31.333Z,11.02
2023-04-02T17:22:59.608Z,10.95
2023-04-02T17:25:34.108Z,10.90
2023-04-02T17:28:03.233Z,10.86
2023-04-02T17:30:31.311Z,10.82
2023-04-02T17:32:59.418Z,10.77
2023-04-02T17:35:53.598Z,10.72
2023-04-02T17:38:31.051Z,10.67
2023-04-02T17:41:02.101Z,10.62
2023-04-02T17:44:11.849Z,10.57
2023-04-02T17:47:05.404Z,10.51
2023-04-02T17:50:17.706Z,10.47
2023-04-02T17:52:57.333Z,10.43
2023-04-02T17:55:40.594Z,10.40
2023-04-02T17:58:46.328Z,10.36
2023-04-02T18:01:45.323Z,10.32
2023-04-02T18:04:32.243Z,10.29
2023-04-02T18:07:18.849Z,10.25
2023-04-02T18:09:55.734Z,10.20
2023-04-02T18:12:41.297Z,10.11
2023-04-02T18:15:09.283Z,10.01
2023-04-02T18:18:06.015Z,9.97
2023-04-02T18:20:46.697Z,9.94
2023-04-02T18:23:33.794Z,9.92
2023-04-02T18:26:13.855Z,9.91
2023-04-02T18:28:53.000Z,9.90
2023-04-02T18:31:56.175Z,9.88
2023-04-02T18:34:37.590Z,9.83
2023-04-02T18:37:09.114Z,9.82
2023-04-02T18:39:57.586Z,9.78
2023-04-02T18:42:53.675Z,9.69
2023-04-02T18:45:24.733Z,9.58
2023-04-02T18:48:14.303Z,9.49
2023-04-02T18:50:46.263Z,9.38
2023-04-02T18:53:18.127Z,9.31
2023-04-02T18:56:08.240Z,9.23
2023-04-02T18:58:52.864Z,9.15
2023-04-02T19:04:22.621Z,9.05
2023-04-02T19:07:01.722Z,9.02
2023-04-02T19:09:41.202Z,9.01
2023-04-02T19:12:23.647Z,9.01
2023-04-02T19:14:52.536Z,9.01
2023-04-02T19:17:38.766Z,8.98
2023-04-02T19:20:25.975Z,8.97
2023-04-02T19:23:18.106Z,8.99
2023-04-02T19:26:05.104Z,9.02
2023-04-02T19:28:59.513Z,9.05
2023-04-02T19:31:48.952Z,9.09
2023-04-02T19:34:35.701Z,9.16
2023-04-02T19:37:15.712Z,9.24
2023-04-02T19:40:05.422Z,9.24
2023-04-02T19:42:43.680Z,9.22
2023-04-02T19:45:25.323Z,9.24
2023-04-02T19:47:54.244Z,9.29
2023-04-02T19:50:22.894Z,9.27
2023-04-02T19:52:51.245Z,9.17
2023-04-02T19:55:19.342Z,9.00
2023-04-02T19:57:47.416Z,8.85
2023-04-02T20:00:16.306Z,8.73
2023-04-02T20:02:44.505Z,8.72
2023-04-02T20:05:13.572Z,8.74
2023-04-02T20:07:41.643Z,8.81
2023-04-02T20:10:10.535Z,8.83
2023-04-02T20:12:38.474Z,8.79
2023-04-02T20:15:07.592Z,8.77
2023-04-02T20:17:35.795Z,8.75
2023-04-02T20:20:04.652Z,8.75
2023-04-02T20:22:32.633Z,8.76
2023-04-02T20:25:00.913Z,8.77
2023-04-02T20:27:28.971Z,8.77
2023-04-02T20:29:57.133Z,8.77
2023-04-02T20:32:25.371Z,8.77
2023-04-02T20:34:54.349Z,8.80
2023-04-02T20:37:22.754Z,8.79
2023-04-02T20:39:51.099Z,8.77
2023-04-02T20:42:19.541Z,8.82
2023-04-02T20:44:47.623Z,8.76
2023-04-02T20:47:16.519Z,8.70
2023-04-02T20:49:44.581Z,8.69
2023-04-02T20:52:12.547Z,8.68
2023-04-02T20:54:40.847Z,8.62
2023-04-02T20:57:09.161Z,8.61
2023-04-02T20:59:37.376Z,8.65
2023-04-02T21:02:05.657Z,8.69
2023-04-02T21:04:34.171Z,8.70
2023-04-02T21:07:02.203Z,8.66
2023-04-02T21:09:30.267Z,8.62
2023-04-02T21:11:58.261Z,8.61
2023-04-02T21:14:26.422Z,8.62
2023-04-02T21:16:54.495Z,8.65
2023-04-02T21:19:22.751Z,8.70
2023-04-02T21:21:51.150Z,8.75
2023-04-02T21:24:19.410Z,8.75
2023-04-02T21:26:47.709Z,8.74
2023-04-02T21:29:16.072Z,8.73
2023-04-02T21:31:44.229Z,8.71
2023-04-02T21:34:15.650Z,8.73
2023-04-02T21:36:46.050Z,8.78
2023-04-02T21:39:20.655Z,8.76
2023-04-02T21:41:50.941Z,8.67
2023-04-02T21:44:21.689Z,8.67
2023-04-02T21:46:51.922Z,8.62
2023-04-02T21:49:23.146Z,8.64
2023-04-02T21:51:52.180Z,8.67
2023-04-02T21:54:20.159Z,8.59
2023-04-02T21:56:48.646Z,8.36
2023-04-02T21:59:17.901Z,8.22
2023-04-02T22:01:49.097Z,8.07
2023-04-02T22:04:25.566Z,7.90
2023-04-02T22:06:54.208Z,7.76
2023-04-02T22:09:24.398Z,7.65
2023-04-02T22:11:55.328Z,7.54
2023-04-02T22:14:23.565Z,7.45
2023-04-02T22:16:52.296Z,7.43
2023-04-02T22:19:21.497Z,7.43
2023-04-02T22:21:49.895Z,7.41
2023-04-02T22:24:19.214Z,7.40
2023-04-02T22:26:47.257Z,7.42
2023-04-02T22:29:16.654Z,7.37
2023-04-02T22:31:44.828Z,7.32
2023-04-02T22:34:12.835Z,7.26
2023-04-02T22:36:41.379Z,7.20
2023-04-02T22:39:12.094Z,7.14
2023-04-02T22:41:40.489Z,7.09
2023-04-02T22:44:15.535Z,7.05
2023-04-02T22:46:43.795Z,7.02
2023-04-02T22:49:11.878Z,7.01
2023-04-02T22:51:40.244Z,6.97
2023-04-02T22:54:08.416Z,6.94
2023-04-02T22:56:37.758Z,6.93
2023-04-02T22:59:06.010Z,6.90
2023-04-02T23:01:36.101Z,6.89
2023-04-02T23:04:05.462Z,6.86
2023-04-02T23:06:33.576Z,6.86
2023-04-02T23:09:01.573Z,6.89
2023-04-02T23:11:29.723Z,6.90
2023-04-02T23:13:58.410Z,6.84
2023-04-02T23:16:29.032Z,6.78
2023-04-02T23:18:57.856Z,6.72
2023-04-02T23:21:26.534Z,6.65
2023-04-02T23:23:54.786Z,6.62
2023-04-02T23:26:27.246Z,6.60
2023-04-02T23:28:55.840Z,6.62
2023-04-02T23:31:25.304Z,6.63
2023-04-02T23:33:53.836Z,6.64
2023-04-02T23:36:23.608Z,6.64
2023-04-02T23:38:56.998Z,6.64
2023-04-02T23:41:27.198Z,6.64
2023-04-02T23:43:56.766Z,6.67
2023-04-02T23:46:26.010Z,6.69
2023-04-02T23:48:55.839Z,6.71
2023-04-02T23:51:24.792Z,6.73
2023-04-02T23:53:55.515Z,6.73
2023-04-02T23:56:24.688Z,6.73
2023-04-02T23:58:52.877Z,6.71
